createdAt,value
2022-12-14T00:04:33.000Z,-6.03
2022-12-14T00:09:40.718Z,-6.13
2022-12-14T00:14:47.522Z,-6.08
2022-12-14T00:19:54.229Z,-6.23
2022-12-14T00:25:03.076Z,-6.30
2022-12-14T00:30:11.383Z,-6.19
2022-12-14T00:35:20.438Z,-6.38
2022-12-14T00:40:28.454Z,-6.41
2022-12-14T00:45:34.693Z,-6.47
2022-12-14T00:50:41.418Z,-6.46
2022-12-14T00:55:56.357Z,-6.54
2022-12-14T01:01:04.937Z,-6.48
2022-12-14T01:06:17.704Z,-6.53
2022-12-14T01:11:25.292Z,-6.47
2022-12-14T01:16:32.295Z,-6.51
2022-12-14T01:21:38.922Z,-6.44
2022-12-14T01:26:46.764Z,-6.35
2022-12-14T01:31:53.416Z,-6.32
2022-12-14T01:36:59.829Z,-6.33
2022-12-14T01:42:14.151Z,-6.33
2022-12-14T01:47:38.568Z,-6.34
2022-12-14T01:52:49.045Z,-6.45
2022-12-14T01:58:02.958Z,-6.65
2022-12-14T02:03:14.272Z,-6.59
2022-12-14T02:08:23.090Z,-6.46
2022-12-14T02:13:33.402Z,-6.54
2022-12-14T02:18:39.597Z,-6.63
2022-12-14T02:24:40.316Z,-6.47
2022-12-14T02:30:07.710Z,-6.45
2022-12-14T02:35:26.962Z,-6.43
2022-12-14T02:40:41.412Z,-6.54
2022-12-14T02:45:59.045Z,-6.59
2022-12-14T02:51:18.797Z,-6.58
2022-12-14T02:56:31.367Z,-6.54
2022-12-14T03:01:40.727Z,-6.77
2022-12-14T03:06:59.469Z,-6.70
2022-12-14T03:12:09.704Z,-6.64
2022-12-14T03:17:25.231Z,-6.63
2022-12-14T03:22:39.307Z,-6.72
2022-12-14T03:27:51.761Z,-6.78
2022-12-14T03:33:06.506Z,-6.86
2022-12-14T03:38:22.320Z,-6.70
2022-12-14T03:43:37.829Z,-6.71
2022-12-14T03:48:51.968Z,-6.84
2022-12-14T03:54:08.175Z,-6.69
2022-12-14T03:59:20.323Z,-6.57
2022-12-14T04:04:35.784Z,-6.58
2022-12-14T04:09:51.887Z,-6.53
2022-12-14T04:15:21.364Z,-6.52
2022-12-14T04:20:33.688Z,-6.46
2022-12-14T04:26:06.047Z,-6.36
2022-12-14T04:31:16.594Z,-6.37
2022-12-14T04:36:29.776Z,-6.31
2022-12-14T04:41:42.983Z,-6.23
2022-12-14T04:46:50.094Z,-6.19
2022-12-14T04:52:05.719Z,-6.15
2022-12-14T04:57:21.023Z,-6.17
2022-12-14T05:02:39.536Z,-6.14
2022-12-14T05:08:00.384Z,-6.12
2022-12-14T05:13:12.085Z,-6.10
2022-12-14T05:18:18.923Z,-6.09
2022-12-14T05:23:27.326Z,-6.03
2022-12-14T05:28:33.743Z,-6.03
2022-12-14T05:33:40.006Z,-6.02
2022-12-14T05:38:49.231Z,-5.97
2022-12-14T05:43:55.429Z,-6.02
2022-12-14T05:49:02.458Z,-5.95
2022-12-14T05:54:10.208Z,-5.88
2022-12-14T05:59:17.597Z,-5.89
2022-12-14T06:04:23.978Z,-5.89
2022-12-14T06:09:32.008Z,-5.88
2022-12-14T06:14:38.669Z,-5.89
2022-12-14T06:19:49.957Z,-5.97
2022-12-14T06:24:58.658Z,-5.87
2022-12-14T06:30:05.456Z,-5.97
2022-12-14T06:35:12.229Z,-6.03
2022-12-14T06:40:20.024Z,-6.03
2022-12-14T06:45:26.284Z,-5.94
2022-12-14T06:50:32.707Z,-6.04
2022-12-14T06:55:40.391Z,-6.09
2022-12-14T07:00:46.889Z,-6.12
2022-12-14T07:05:58.613Z,-6.18
2022-12-14T07:11:08.226Z,-6.20
2022-12-14T07:16:19.766Z,-6.22
2022-12-14T07:21:27.071Z,-6.23
2022-12-14T07:26:34.931Z,-6.18
2022-12-14T07:31:41.353Z,-6.18
2022-12-14T07:36:50.668Z,-6.26
2022-12-14T07:41:58.648Z,-6.30
2022-12-14T07:47:05.144Z,-6.45
2022-12-14T07:52:11.681Z,-6.47
2022-12-14T07:57:19.578Z,-6.44
2022-12-14T08:02:26.089Z,-6.58
2022-12-14T08:07:32.701Z,-6.65
2022-12-14T08:12:40.505Z,-6.69
2022-12-14T08:17:46.913Z,-6.70
2022-12-14T08:22:53.899Z,-6.75
2022-12-14T08:28:02.202Z,-6.75
2022-12-14T08:33:08.757Z,-6.74
2022-12-14T08:38:15.748Z,-6.82
2022-12-14T08:43:25.177Z,-6.83
2022-12-14T08:48:31.834Z,-6.64
2022-12-14T08:53:39.275Z,-6.73
2022-12-14T08:58:47.594Z,-6.81
2022-12-14T09:03:56.093Z,-6.78
2022-12-14T09:09:02.557Z,-6.70
2022-12-14T09:14:11.055Z,-6.77
2022-12-14T09:19:17.398Z,-6.82
2022-12-14T09:24:24.863Z,-7.04
2022-12-14T09:29:32.665Z,-7.17
2022-12-14T09:34:39.060Z,-7.21
2022-12-14T09:39:45.436Z,-7.27
2022-12-14T09:45:01.446Z,-7.14
2022-12-14T09:50:14.309Z,-7.01
2022-12-14T09:55:27.636Z,-6.96
2022-12-14T10:00:51.425Z,-6.94
2022-12-14T10:06:29.139Z,-6.78
2022-12-14T10:11:48.421Z,-6.69
2022-12-14T10:17:06.178Z,-6.76
2022-12-14T10:22:17.922Z,-6.70
2022-12-14T10:27:26.494Z,-6.59
2022-12-14T10:32:37.296Z,-6.46
2022-12-14T10:37:47.618Z,-6.42
2022-12-14T10:43:14.403Z,-6.38
2022-12-14T10:48:42.566Z,-6.34
2022-12-14T10:53:57.164Z,-6.28
2022-12-14T10:59:35.129Z,-6.20
2022-12-14T11:04:54.717Z,-6.13
2022-12-14T11:10:18.337Z,-6.11
2022-12-14T11:15:30.367Z,-6.02
2022-12-14T11:20:38.473Z,-5.92
2022-12-14T11:25:49.002Z,-5.84
2022-12-14T11:31:03.396Z,-5.78
2022-12-14T11:36:24.206Z,-5.71
2022-12-14T11:41:35.862Z,-5.62
2022-12-14T11:46:56.670Z,-5.57
2022-12-14T11:52:13.315Z,-5.49
2022-12-14T11:57:29.045Z,-5.45
2022-12-14T12:02:39.379Z,-5.43
2022-12-14T12:07:54.540Z,-5.35
2022-12-14T12:13:03.556Z,-5.35
2022-12-14T12:18:19.789Z,-5.30
2022-12-14T12:23:35.211Z,-5.21
2022-12-14T12:28:48.976Z,-5.19
2022-12-14T12:34:00.966Z,-5.13
2022-12-14T12:39:17.157Z,-5.16
2022-12-14T12:44:39.337Z,-5.12
2022-12-14T12:49:45.890Z,-5.10
2022-12-14T12:55:02.475Z,-4.89
2022-12-14T13:00:16.399Z,-4.93
2022-12-14T13:16:34.782Z,-5.14
2022-12-14T13:21:49.680Z,-5.13
2022-12-14T13:27:32.394Z,-5.16
2022-12-14T13:33:08.112Z,-5.22
2022-12-14T13:38:38.772Z,-5.34
2022-12-14T13:44:14.545Z,-5.39
2022-12-14T13:49:23.663Z,-5.44
2022-12-14T13:54:36.306Z,-5.49
2022-12-14T13:59:47.825Z,-5.57
2022-12-14T14:05:14.305Z,-5.62
2022-12-14T14:10:41.974Z,-5.65
2022-12-14T14:22:14.230Z,-5.72
2022-12-14T14:27:21.072Z,-5.78
2022-12-14T14:32:41.321Z,-5.85
2022-12-14T14:37:59.836Z,-5.93
2022-12-14T14:43:24.947Z,-6.00
2022-12-14T14:48:37.380Z,-6.11
2022-12-14T14:53:44.459Z,-6.18
2022-12-14T14:58:53.882Z,-6.24
2022-12-14T15:04:06.096Z,-6.26
2022-12-14T15:09:26.183Z,-6.31
2022-12-14T15:14:48.273Z,-6.35
2022-12-14T15:19:56.467Z,-6.35
2022-12-14T15:25:04.686Z,-6.35
2022-12-14T15:30:23.688Z,-6.41
2022-12-14T15:35:34.822Z,-6.46
2022-12-14T15:40:43.117Z,-6.49
2022-12-14T15:45:55.079Z,-6.49
2022-12-14T15:51:06.066Z,-6.52
2022-12-14T15:56:27.463Z,-6.54
2022-12-14T16:01:45.993Z,-6.56
2022-12-14T16:07:08.113Z,-6.57
2022-12-14T16:12:23.100Z,-6.62
2022-12-14T16:17:34.166Z,-6.58
2022-12-14T16:22:44.428Z,-6.65
2022-12-14T16:27:53.744Z,-6.65
2022-12-14T16:33:20.959Z,-6.66
2022-12-14T16:38:30.619Z,-6.65
2022-12-14T16:43:40.795Z,-6.71
2022-12-14T16:49:25.041Z,-6.70
2022-12-14T16:54:35.753Z,-6.77
2022-12-14T16:59:46.848Z,-6.81
2022-12-14T17:04:56.397Z,-6.84
2022-12-14T17:10:03.369Z,-6.84
2022-12-14T17:15:16.625Z,-6.84
2022-12-14T17:20:30.701Z,-6.81
2022-12-14T17:25:46.155Z,-6.86
2022-12-14T17:30:58.280Z,-6.81
2022-12-14T17:36:09.445Z,-6.90
2022-12-14T17:41:26.585Z,-6.84
2022-12-14T17:46:37.299Z,-6.81
2022-12-14T17:51:48.939Z,-6.90
2022-12-14T17:56:58.321Z,-6.97
2022-12-14T18:02:15.193Z,-6.92
2022-12-14T18:07:28.542Z,-6.93
2022-12-14T18:12:37.730Z,-6.96
2022-12-14T18:17:49.989Z,-6.96
2022-12-14T18:23:03.604Z,-6.90
2022-12-14T18:28:15.520Z,-6.89
2022-12-14T18:33:28.670Z,-6.84
2022-12-14T18:38:40.535Z,-6.77
2022-12-14T18:43:51.465Z,-6.68
2022-12-14T18:49:00.996Z,-6.63
2022-12-14T18:54:14.669Z,-6.66
2022-12-14T18:59:27.865Z,-6.62
2022-12-14T19:04:38.742Z,-6.56
2022-12-14T19:09:51.698Z,-6.44
2022-12-14T19:15:04.508Z,-6.38
2022-12-14T19:20:19.707Z,-6.47
2022-12-14T19:25:47.664Z,-6.40
2022-12-14T19:31:00.049Z,-6.38
2022-12-14T19:36:19.121Z,-6.34
2022-12-14T19:41:35.147Z,-6.32
2022-12-14T19:46:44.234Z,-6.35
2022-12-14T19:52:00.614Z,-6.29
2022-12-14T19:57:18.063Z,-6.27
2022-12-14T20:02:32.635Z,-6.19
2022-12-14T20:07:45.140Z,-6.17
2022-12-14T20:13:06.066Z,-6.09
2022-12-14T20:18:16.581Z,-6.07
2022-12-14T20:23:30.547Z,-6.05
2022-12-14T20:28:42.832Z,-5.99
2022-12-14T20:33:54.972Z,-5.96
2022-12-14T20:39:08.118Z,-5.95
2022-12-14T20:44:24.572Z,-5.96
2022-12-14T20:49:34.500Z,-5.90
2022-12-14T20:54:44.306Z,-5.89
2022-12-14T20:59:59.553Z,-5.89
2022-12-14T21:05:09.329Z,-5.86
2022-12-14T21:10:19.209Z,-5.86
2022-12-14T21:15:30.614Z,-5.84
2022-12-14T21:20:40.965Z,-5.88
2022-12-14T21:25:48.327Z,-5.83
2022-12-14T21:31:03.147Z,-5.86
2022-12-14T21:36:12.136Z,-5.87
2022-12-14T21:41:36.221Z,-5.83
2022-12-14T21:46:44.991Z,-5.75
2022-12-14T21:51:51.255Z,-5.69
2022-12-14T21:57:15.750Z,-5.66
2022-12-14T22:02:26.700Z,-5.66
2022-12-14T22:07:35.983Z,-5.65
2022-12-14T22:12:42.541Z,-5.67
2022-12-14T22:17:52.493Z,-5.70
2022-12-14T22:23:01.917Z,-5.67
2022-12-14T22:28:09.676Z,-5.61
2022-12-14T22:33:17.516Z,-5.54
2022-12-14T22:38:25.443Z,-5.51
2022-12-14T22:43:36.976Z,-5.48
2022-12-14T22:48:45.198Z,-5.49
2022-12-14T22:53:51.733Z,-5.43
2022-12-14T22:59:02.495Z,-5.42
2022-12-14T23:04:12.659Z,-5.37
2022-12-14T23:09:36.672Z,-5.35
2022-12-14T23:15:00.503Z,-5.27
2022-12-14T23:20:27.505Z,-5.23
2022-12-14T23:25:53.333Z,-5.25
2022-12-14T23:31:17.412Z,-5.20
2022-12-14T23:36:43.391Z,-5.13
2022-12-14T23:42:06.761Z,-5.09
2022-12-14T23:47:30.741Z,-5.05
2022-12-14T23:52:56.077Z,-5.03
2022-12-14T23:58:19.954Z,-5.04
